Stations météo

réclame
Mon MeteoGroup
Vipiteno, Italie (16014): Température de l'air & dewpoint: 12.02.2018 05:00:00 - 18.02.2018 05:00:00 (CET)Vipiteno, Italie (16014): Vitesse du vent: 12.02.2018 05:00:00 - 18.02.2018 05:00:00 (CET)Vipiteno, Italie (16014): Direction du vent: 12.02.2018 05:00:00 - 18.02.2018 05:00:00 (CET)Vipiteno, Italie (16014): Quantités de précipitations: 12.02.2018 05:00:00 - 18.02.2018 05:00:00 (CET)
Date & Time tt [°C] td [°C] ff [km/h] ff [knt] dd rr [mm]
18.02.2018 05:00:00 2,8 -2,4 28 15 NW -
18.02.2018 04:00:00 0,0 -1,5 4 2 NNE -
18.02.2018 03:00:00 0,0 -1,5 2 1 ESE -
18.02.2018 02:00:00 0,2 -1,3 2 1 SSE -
18.02.2018 01:00:00 0,4 -1,2 4 2 E 0,0
18.02.2018 00:00:00 0,5 -1,3 0 0 N -
17.02.2018 23:00:00 0,7 -1,9 0 0 N -
17.02.2018 22:00:00 1,2 -1,7 0 0 N -
17.02.2018 21:00:00 1,1 -2,7 0 0 N -
17.02.2018 20:00:00 1,3 -2,9 0 0 N -
17.02.2018 19:00:00 1,9 -2,7 0 0 N 0,0
17.02.2018 18:00:00 3,7 -2,1 2 1 S -
17.02.2018 17:00:00 4,3 -2,2 9 5 SE -
17.02.2018 16:00:00 4,4 -1,9 5 3 SE -
17.02.2018 15:00:00 4,3 -1,2 5 3 ENE -
17.02.2018 14:00:00 3,3 0,8 2 1 N -
17.02.2018 13:00:00 2,8 1,3 0 0 N 0,0
17.02.2018 12:00:00 2,2 0,7 2 1 NNW -
17.02.2018 11:00:00 0,9 -0,6 2 1 N -
17.02.2018 10:00:00 -0,4 -1,9 0 0 N -
17.02.2018 09:00:00 -1,4 -2,9 0 0 N -
17.02.2018 08:00:00 -2,6 -4,0 2 1 WNW -
17.02.2018 07:00:00 -2,6 -4,0 0 0 N 0,0
17.02.2018 06:00:00 -3,5 -4,9 0 0 N -
17.02.2018 05:00:00 -2,0 -3,4 4 2 ESE -
17.02.2018 04:00:00 -2,1 -3,5 0 0 N -
17.02.2018 03:00:00 -1,9 -3,3 2 1 ENE -
17.02.2018 02:00:00 -2,4 -4,1 2 1 WNW -
17.02.2018 01:00:00 -1,6 -3,4 0 0 N 0,0
17.02.2018 00:00:00 -0,8 -2,7 2 1 SE -
16.02.2018 23:00:00 -0,1 -2,2 2 1 W -
16.02.2018 22:00:00 0,2 -2,4 2 1 W -
16.02.2018 21:00:00 1,3 -1,8 4 2 SSW -
16.02.2018 20:00:00 2,1 -1,7 2 1 SW -
16.02.2018 19:00:00 3,5 -0,9 5 3 S 0,0
16.02.2018 18:00:00 5,6 0,1 4 2 SW -
16.02.2018 17:00:00 6,3 0,3 5 3 SE -
16.02.2018 16:00:00 6,1 0,1 28 15 WNW -
16.02.2018 15:00:00 6,8 0,4 29 16 N -
16.02.2018 14:00:00 7,7 1,0 21 11 NNW -
16.02.2018 13:00:00 6,7 0,7 5 3 N 0,0
16.02.2018 12:00:00 3,6 -1,0 0 0 N -
16.02.2018 11:00:00 1,3 -2,2 2 1 ENE -
16.02.2018 10:00:00 -0,3 -2,9 0 0 N -
16.02.2018 09:00:00 -2,2 -4,7 2 1 NNW -
16.02.2018 08:00:00 -3,8 -6,5 2 1 WNW -
16.02.2018 07:00:00 -4,7 -7,8 0 0 N 0,0
16.02.2018 06:00:00 -4,0 -7,3 0 0 N -
16.02.2018 05:00:00 -4,1 -7,8 4 2 N -
16.02.2018 04:00:00 -3,0 -6,9 2 1 W -
16.02.2018 03:00:00 -3,1 -7,3 0 0 N -
16.02.2018 02:00:00 -2,8 -7,2 0 0 N -
16.02.2018 01:00:00 -2,5 -7,3 0 0 N 0,0
16.02.2018 00:00:00 -2,4 -7,8 0 0 N -
15.02.2018 23:00:00 -2,2 -7,6 2 1 ESE -
15.02.2018 22:00:00 -2,2 -8,8 2 1 NNE -
15.02.2018 21:00:00 -2,0 -9,5 4 2 SSW -
15.02.2018 20:00:00 -2,1 -9,4 0 0 N -
15.02.2018 19:00:00 -1,4 -11,4 2 1 S 0,0
15.02.2018 18:00:00 -0,6 -11,8 4 2 S -
15.02.2018 17:00:00 -0,1 -13,5 8 4 SW -
15.02.2018 16:00:00 -0,7 -11,6 0 0 N -
15.02.2018 15:00:00 -1,5 -13,4 0 0 N -
15.02.2018 14:00:00 -2,6 -13,3 0 0 N -
15.02.2018 13:00:00 -3,5 -13,3 0 0 N 0,0
15.02.2018 12:00:00 -5,2 -13,1 0 0 N -
15.02.2018 11:00:00 -7,0 -12,9 0 0 N -
15.02.2018 10:00:00 -9,6 -13,5 0 0 N -
15.02.2018 09:00:00 -11,5 - - - - -
15.02.2018 08:00:00 -14,5 -18,3 0 0 N -
15.02.2018 07:00:00 -14,8 -18,6 0 0 N 0,0
15.02.2018 06:00:00 -15,2 -19,1 0 0 N -
15.02.2018 05:00:00 -15,1 -19,2 0 0 N -
15.02.2018 04:00:00 -15,0 -19,6 0 0 N -
15.02.2018 03:00:00 -13,9 -18,7 0 0 N -
15.02.2018 02:00:00 -13,6 -18,6 0 0 N -
15.02.2018 01:00:00 -12,7 -18,5 0 0 N 0,0
15.02.2018 00:00:00 -10,4 -16,9 0 0 N -
14.02.2018 23:00:00 -9,9 -17,1 0 0 N -
14.02.2018 22:00:00 -8,0 -16,2 5 3 WNW -
14.02.2018 21:00:00 -6,9 -16,4 9 5 WSW -
14.02.2018 20:00:00 -6,2 -16,5 5 3 W -
14.02.2018 19:00:00 -4,0 -15,4 8 4 W 0,0
14.02.2018 18:00:00 -2,5 -16,0 15 8 WNW -
14.02.2018 17:00:00 -1,0 -16,5 15 8 NW -
14.02.2018 16:00:00 -0,6 -15,4 22 12 NNW -
14.02.2018 15:00:00 -0,2 -15,4 21 11 NW -
14.02.2018 14:00:00 -0,4 -14,8 26 14 NNW -
14.02.2018 13:00:00 -0,5 -15,3 24 13 NNW 0,0
14.02.2018 12:00:00 -3,4 -10,1 4 2 NNW -
14.02.2018 11:00:00 -7,1 -11,2 0 0 N -
14.02.2018 10:00:00 -9,0 -11,5 0 0 N -
14.02.2018 09:00:00 -11,3 -13,6 0 0 N -
14.02.2018 08:00:00 -14,1 -16,9 0 0 N -
14.02.2018 07:00:00 -14,8 -17,9 0 0 N 0,0
14.02.2018 06:00:00 -13,8 -17,0 0 0 N -
14.02.2018 05:00:00 -13,5 -16,8 0 0 N -
14.02.2018 04:00:00 -12,5 -16,0 0 0 N -
14.02.2018 03:00:00 -11,7 -15,4 0 0 N -
14.02.2018 02:00:00 -12,3 -16,1 0 0 N -
14.02.2018 01:00:00 -12,2 -16,6 0 0 N 0,0
14.02.2018 00:00:00 -11,6 -16,7 0 0 N -
13.02.2018 23:00:00 -9,1 -14,3 0 0 N -
13.02.2018 22:00:00 -8,1 -13,7 0 0 N -
13.02.2018 21:00:00 -6,7 -13,2 0 0 N -
13.02.2018 20:00:00 -5,5 -12,9 9 5 W -
13.02.2018 19:00:00 -4,1 -12,1 8 4 WSW 0,0
13.02.2018 18:00:00 -2,8 -12,1 9 5 WSW -
13.02.2018 17:00:00 -1,4 -10,6 2 1 E -
13.02.2018 16:00:00 -0,1 -11,6 2 1 S -
13.02.2018 15:00:00 0,3 -12,2 5 3 SW -
13.02.2018 14:00:00 1,1 -12,8 8 4 WSW -
13.02.2018 13:00:00 0,0 -11,5 4 2 WSW 0,0
13.02.2018 12:00:00 -1,7 -11,1 13 7 N -
13.02.2018 11:00:00 -2,3 -11,2 15 8 NNW -
13.02.2018 10:00:00 -4,4 -11,3 9 5 WNW -
13.02.2018 09:00:00 -5,3 -11,5 13 7 WSW -
13.02.2018 08:00:00 -5,7 -11,3 13 7 W -
13.02.2018 07:00:00 -5,3 -11,5 9 5 WSW 0,0
13.02.2018 06:00:00 -5,2 -11,6 9 5 NNW -
13.02.2018 05:00:00 -3,6 -10,5 16 9 N -
13.02.2018 04:00:00 -3,5 -10,2 21 11 NW -
13.02.2018 03:00:00 -3,4 -10,4 16 9 N -
13.02.2018 02:00:00 -3,2 -10,6 16 9 N -
13.02.2018 01:00:00 -2,6 -11,5 8 4 WSW 0,0
13.02.2018 00:00:00 -2,6 -11,5 11 6 NNW -
12.02.2018 23:00:00 -2,6 -11,0 16 9 NW -
12.02.2018 22:00:00 -2,1 -10,5 16 9 NW -
12.02.2018 21:00:00 -1,8 -10,0 15 8 NW -
12.02.2018 20:00:00 -1,9 -9,2 21 11 W -
12.02.2018 19:00:00 -1,1 -9,6 16 9 W 0,0
12.02.2018 18:00:00 -1,3 -8,4 13 7 W -
12.02.2018 17:00:00 -0,7 -9,0 18 10 NNW -
12.02.2018 16:00:00 0,1 -9,2 18 10 NW -
12.02.2018 15:00:00 0,4 -9,2 15 8 WNW -
12.02.2018 14:00:00 0,2 -7,9 9 5 WNW -
12.02.2018 13:00:00 0,3 -6,9 22 12 NW 0,0
12.02.2018 12:00:00 0,6 -7,0 9 5 WSW -
12.02.2018 11:00:00 0,4 -3,8 11 6 WSW -
12.02.2018 10:00:00 -1,4 -3,0 2 1 SSW -
12.02.2018 09:00:00 -2,0 -3,6 4 2 E -
12.02.2018 08:00:00 -2,1 -3,8 4 2 ENE -
12.02.2018 07:00:00 -2,2 -3,8 9 5 SE 0,0
12.02.2018 06:00:00 -2,2 -3,9 5 3 SSE -
12.02.2018 05:00:00 -1,8 -3,6 4 2 E -

tt = Température de l'air
td = dewpoint
ff = Vitesse du vent
dd = Direction du vent
rr = Quantités de précipitations

stations d'obs. à proximité